Time;durP1;ratioP1;P1;durP2;ratioP2;P2;SDS_P1;SDS_P2;PMS_P1;PMS_P2;Temp;Humidity;BMP_temperature;BMP_pressure;BME280_temperature;BME280_humidity;BME280_pressure;Samples;Min_cycle;Max_cycle;Signal;HPM_P1;HPM_P2
2020/12/23 00:01:57;;;;;;;10.00;3.83;;;;;;;;;;5099428;28;20467;-72
2020/12/23 00:04:25;;;;;;;12.47;3.73;;;;;;;;;;5099764;28;20460;-72
2020/12/23 00:06:52;;;;;;;8.33;3.70;;;;;;;;;;5100093;28;20491;-72
2020/12/23 00:09:19;;;;;;;8.70;3.20;;;;;;;;;;5098784;28;20459;-72
2020/12/23 00:11:51;;;;;;;11.80;3.53;;;;;;;;;;5099531;28;20480;-72
2020/12/23 00:14:19;;;;;;;9.30;3.70;;;;;;;;;;5098427;28;20448;-72
2020/12/23 00:16:46;;;;;;;11.47;3.87;;;;;;;;;;5099567;28;20495;-73
2020/12/23 00:19:17;;;;;;;7.23;3.23;;;;;;;;;;5099534;28;20451;-72
2020/12/23 00:21:45;;;;;;;9.23;2.70;;;;;;;;;;5098798;28;20724;-73
2020/12/23 00:24:12;;;;;;;12.57;2.93;;;;;;;;;;5099135;28;20452;-72
2020/12/23 00:26:39;;;;;;;13.13;3.10;;;;;;;;;;5098365;28;20479;-73
2020/12/23 00:29:07;;;;;;;8.00;2.80;;;;;;;;;;5099052;28;20899;-72
2020/12/23 00:31:34;;;;;;;14.20;2.93;;;;;;;;;;5099659;28;20851;-72
2020/12/23 00:34:01;;;;;;;9.00;2.80;;;;;;;;;;5099347;28;20759;-73
2020/12/23 00:36:29;;;;;;;10.00;3.57;;;;;;;;;;5099362;28;20554;-73
2020/12/23 00:38:57;;;;;;;4.43;2.20;;;;;;;;;;5098152;28;20554;-72
2020/12/23 00:41:24;;;;;;;8.43;2.00;;;;;;;;;;5098499;28;20468;-72
2020/12/23 00:43:51;;;;;;;12.33;3.30;;;;;;;;;;5098822;28;20549;-72
2020/12/23 00:46:18;;;;;;;16.20;2.47;;;;;;;;;;5098888;28;20464;-73
2020/12/23 00:48:45;;;;;;;10.13;4.30;;;;;;;;;;5098404;28;20828;-72
2020/12/23 00:51:13;;;;;;;9.67;2.97;;;;;;;;;;5098921;28;20543;-72
2020/12/23 00:53:42;;;;;;;13.87;3.27;;;;;;;;;;5098576;28;20880;-72
2020/12/23 00:56:09;;;;;;;9.20;3.10;;;;;;;;;;5098771;28;20856;-72
2020/12/23 00:58:39;;;;;;;9.00;2.63;;;;;;;;;;5099170;28;20451;-73
2020/12/23 01:01:09;;;;;;;15.90;3.10;;;;;;;;;;5098867;28;20467;-72
2020/12/23 01:03:36;;;;;;;7.17;2.47;;;;;;;;;;5098973;28;20591;-73
2020/12/23 01:06:07;;;;;;;10.30;2.90;;;;;;;;;;5098985;28;20467;-73
2020/12/23 01:08:34;;;;;;;10.33;2.60;;;;;;;;;;5098438;28;20453;-72
2020/12/23 01:11:02;;;;;;;10.50;2.67;;;;;;;;;;5098433;28;20458;-72
2020/12/23 01:13:30;;;;;;;8.90;2.80;;;;;;;;;;5098434;28;20861;-72
2020/12/23 01:15:57;;;;;;;8.23;2.37;;;;;;;;;;5098194;28;20521;-72
2020/12/23 01:18:24;;;;;;;6.87;2.50;;;;;;;;;;5098518;28;20452;-72
2020/12/23 01:20:52;;;;;;;11.87;3.23;;;;;;;;;;5098260;28;20853;-72
2020/12/23 01:23:19;;;;;;;10.60;2.50;;;;;;;;;;5098650;28;20447;-73
2020/12/23 01:25:46;;;;;;;12.60;2.33;;;;;;;;;;5097864;28;20463;-73
2020/12/23 01:28:15;;;;;;;10.20;2.80;;;;;;;;;;5081683;28;20494;-72
2020/12/23 01:30:42;;;;;;;11.50;2.60;;;;;;;;;;5098194;28;20491;-72
2020/12/23 01:33:09;;;;;;;8.67;2.27;;;;;;;;;;5097543;28;20459;-73
2020/12/23 01:35:36;;;;;;;6.00;2.30;;;;;;;;;;5098165;28;20552;-72
2020/12/23 01:38:04;;;;;;;7.17;2.50;;;;;;;;;;5097644;28;20456;-72
2020/12/23 01:40:34;;;;;;;9.50;3.03;;;;;;;;;;5097607;28;20467;-72
2020/12/23 01:43:01;;;;;;;10.67;2.73;;;;;;;;;;5097567;28;20868;-73
2020/12/23 01:45:29;;;;;;;7.90;2.30;;;;;;;;;;5097639;28;20537;-73
2020/12/23 01:47:58;;;;;;;9.43;3.23;;;;;;;;;;5097513;28;20483;-73
2020/12/23 01:50:25;;;;;;;9.63;2.37;;;;;;;;;;5098677;28;20558;-73
2020/12/23 01:52:54;;;;;;;7.83;2.43;;;;;;;;;;5097428;28;20501;-73
2020/12/23 01:55:21;;;;;;;6.33;2.93;;;;;;;;;;5097763;28;20464;-73
2020/12/23 01:57:48;;;;;;;7.00;2.67;;;;;;;;;;5097475;28;20459;-72
2020/12/23 02:00:16;;;;;;;9.20;2.50;;;;;;;;;;5097428;28;20884;-73
2020/12/23 02:02:45;;;;;;;7.07;2.60;;;;;;;;;;5097186;28;20543;-72
2020/12/23 02:05:12;;;;;;;8.53;2.30;;;;;;;;;;5094485;28;20539;-73
2020/12/23 02:07:39;;;;;;;7.83;2.23;;;;;;;;;;5097095;28;20934;-73
2020/12/23 02:10:08;;;;;;;7.33;2.27;;;;;;;;;;5096791;28;20467;-73
2020/12/23 02:12:35;;;;;;;8.07;2.47;;;;;;;;;;5095663;28;20467;-73
2020/12/23 02:15:09;;;;;;;11.00;3.03;;;;;;;;;;5097369;28;20468;-73
2020/12/23 02:17:36;;;;;;;6.13;2.90;;;;;;;;;;5095928;28;20439;-73
2020/12/23 02:20:05;;;;;;;5.20;2.40;;;;;;;;;;5095897;28;20537;-73
2020/12/23 02:22:33;;;;;;;19.17;3.27;;;;;;;;;;5096052;28;20463;-73
2020/12/23 02:25:01;;;;;;;11.33;2.93;;;;;;;;;;5096478;28;20472;-73
2020/12/23 02:27:28;;;;;;;9.60;2.57;;;;;;;;;;5096613;28;20556;-73
2020/12/23 02:29:56;;;;;;;5.27;2.03;;;;;;;;;;5095821;28;20467;-73
2020/12/23 02:32:24;;;;;;;6.53;2.80;;;;;;;;;;5095366;28;20461;-73
2020/12/23 02:34:52;;;;;;;11.30;2.40;;;;;;;;;;5096460;28;20508;-73
2020/12/23 02:37:19;;;;;;;4.60;2.10;;;;;;;;;;5096059;28;20463;-73
2020/12/23 02:39:48;;;;;;;4.40;1.90;;;;;;;;;;5095932;28;20463;-73
2020/12/23 02:42:16;;;;;;;5.50;2.07;;;;;;;;;;5093899;28;20440;-73
2020/12/23 02:44:43;;;;;;;8.57;1.83;;;;;;;;;;5095949;28;20463;-73
2020/12/23 02:47:11;;;;;;;7.70;2.73;;;;;;;;;;5096139;28;20488;-73
2020/12/23 02:49:38;;;;;;;3.70;1.93;;;;;;;;;;5096072;28;20451;-73
2020/12/23 02:52:06;;;;;;;10.30;2.23;;;;;;;;;;5096201;28;20490;-73
2020/12/23 02:54:33;;;;;;;7.90;2.50;;;;;;;;;;5096386;28;20452;-73
2020/12/23 02:57:01;;;;;;;7.30;2.80;;;;;;;;;;5096145;28;20471;-72
2020/12/23 02:59:28;;;;;;;8.50;2.40;;;;;;;;;;5096332;28;20456;-73
2020/12/23 03:01:56;;;;;;;9.73;2.43;;;;;;;;;;5096499;28;20895;-73
2020/12/23 03:04:23;;;;;;;5.63;1.97;;;;;;;;;;5095874;28;20825;-73
2020/12/23 03:06:50;;;;;;;7.90;2.97;;;;;;;;;;5096008;28;20496;-73
2020/12/23 03:09:17;;;;;;;4.70;1.60;;;;;;;;;;5096404;28;20444;-73
2020/12/23 03:11:45;;;;;;;4.47;1.97;;;;;;;;;;5095682;28;20529;-73
2020/12/23 03:14:13;;;;;;;4.10;2.37;;;;;;;;;;5095808;28;20452;-73
2020/12/23 03:16:40;;;;;;;6.17;1.80;;;;;;;;;;5096355;28;20468;-73
2020/12/23 03:19:08;;;;;;;7.27;2.07;;;;;;;;;;5095482;28;20460;-73
2020/12/23 03:21:35;;;;;;;4.60;1.97;;;;;;;;;;5095782;28;20560;-73
2020/12/23 03:24:05;;;;;;;3.97;1.80;;;;;;;;;;5095561;28;20448;-73
2020/12/23 03:26:32;;;;;;;5.17;1.80;;;;;;;;;;5095869;28;20463;-73
2020/12/23 03:28:59;;;;;;;4.40;1.90;;;;;;;;;;5095736;28;20545;-73
2020/12/23 03:31:29;;;;;;;5.50;1.47;;;;;;;;;;5095953;28;20464;-73
2020/12/23 03:34:00;;;;;;;6.40;1.77;;;;;;;;;;5095849;28;20793;-73
2020/12/23 03:36:27;;;;;;;6.17;2.07;;;;;;;;;;5095617;28;20774;-73
2020/12/23 03:38:54;;;;;;;4.73;1.60;;;;;;;;;;5096126;28;20649;-73
2020/12/23 03:41:22;;;;;;;5.43;1.90;;;;;;;;;;5095559;28;20475;-72
2020/12/23 03:43:49;;;;;;;7.70;1.70;;;;;;;;;;5095121;28;20452;-73
2020/12/23 03:46:16;;;;;;;4.00;1.70;;;;;;;;;;5095461;28;20467;-73
2020/12/23 03:48:45;;;;;;;3.50;1.60;;;;;;;;;;5095228;28;20783;-73
2020/12/23 03:51:12;;;;;;;7.33;2.10;;;;;;;;;;5095427;28;20952;-73
2020/12/23 03:53:41;;;;;;;5.87;2.40;;;;;;;;;;5095178;28;20942;-73
2020/12/23 03:56:08;;;;;;;3.73;1.63;;;;;;;;;;5095783;28;20943;-73
2020/12/23 03:58:36;;;;;;;3.50;1.90;;;;;;;;;;5099292;28;20886;-73
2020/12/23 04:01:05;;;;;;;4.73;1.90;;;;;;;;;;5088456;28;20449;-73
2020/12/23 04:03:32;;;;;;;4.20;1.57;;;;;;;;;;5079373;28;20865;-73
2020/12/23 04:06:01;;;;;;;4.17;1.70;;;;;;;;;;5084872;28;20472;-72
2020/12/23 04:08:28;;;;;;;2.37;1.20;;;;;;;;;;5098821;28;20938;-73
2020/12/23 04:10:55;;;;;;;3.70;1.83;;;;;;;;;;5098432;28;20485;-73
2020/12/23 04:13:23;;;;;;;3.90;2.00;;;;;;;;;;5098713;28;20467;-72
2020/12/23 04:15:50;;;;;;;3.53;1.93;;;;;;;;;;5098432;28;20456;-73
2020/12/23 04:18:17;;;;;;;3.30;2.00;;;;;;;;;;5098959;28;20456;-74
2020/12/23 04:20:45;;;;;;;2.53;1.30;;;;;;;;;;5099764;28;20492;-73
2020/12/23 04:23:14;;;;;;;2.73;1.50;;;;;;;;;;5099095;28;20871;-73
2020/12/23 04:25:41;;;;;;;3.00;1.80;;;;;;;;;;5098711;28;20632;-73
2020/12/23 04:28:09;;;;;;;4.83;3.53;;;;;;;;;;5098910;28;20780;-73
2020/12/23 04:30:36;;;;;;;5.27;1.53;;;;;;;;;;5098107;28;20891;-73
2020/12/23 04:33:03;;;;;;;3.40;1.80;;;;;;;;;;5097559;28;20452;-74
2020/12/23 04:35:31;;;;;;;3.00;1.53;;;;;;;;;;5081159;28;20461;-73
2020/12/23 04:37:58;;;;;;;4.03;1.63;;;;;;;;;;5078444;28;20460;-73
2020/12/23 04:40:26;;;;;;;6.70;1.77;;;;;;;;;;5078409;28;20476;-73
2020/12/23 04:42:54;;;;;;;3.37;2.53;;;;;;;;;;5077892;28;20465;-73
2020/12/23 04:45:21;;;;;;;7.77;1.77;;;;;;;;;;5077715;28;20473;-73
2020/12/23 04:47:48;;;;;;;4.47;1.77;;;;;;;;;;5078352;28;20492;-72
2020/12/23 04:50:16;;;;;;;5.20;2.23;;;;;;;;;;5077390;28;20460;-73
2020/12/23 04:52:43;;;;;;;4.07;2.03;;;;;;;;;;5078015;28;20511;-74
2020/12/23 04:55:11;;;;;;;5.17;2.03;;;;;;;;;;5077335;28;20480;-73
2020/12/23 04:57:41;;;;;;;3.80;2.40;;;;;;;;;;5077575;28;20453;-74
2020/12/23 05:00:08;;;;;;;4.20;1.73;;;;;;;;;;5077287;28;20465;-73
2020/12/23 05:02:35;;;;;;;5.03;2.17;;;;;;;;;;5076889;28;20457;-73
2020/12/23 05:05:03;;;;;;;3.33;2.00;;;;;;;;;;5077418;28;20457;-73
2020/12/23 05:07:30;;;;;;;4.40;2.10;;;;;;;;;;5076365;28;20484;-73
2020/12/23 05:09:57;;;;;;;3.97;2.00;;;;;;;;;;5076991;28;20529;-73
2020/12/23 05:12:25;;;;;;;4.60;3.20;;;;;;;;;;5077048;28;20527;-72
2020/12/23 05:14:53;;;;;;;4.70;2.47;;;;;;;;;;5077168;28;20889;-73
2020/12/23 05:17:20;;;;;;;3.83;2.10;;;;;;;;;;5076557;28;20457;-73
2020/12/23 05:19:47;;;;;;;8.47;2.77;;;;;;;;;;5075223;28;20523;-73
2020/12/23 05:22:17;;;;;;;19.17;2.30;;;;;;;;;;5077124;28;20738;-73
2020/12/23 05:24:44;;;;;;;19.73;3.17;;;;;;;;;;5076970;28;20539;-73
2020/12/23 05:27:11;;;;;;;12.47;3.30;;;;;;;;;;5076754;28;20562;-73
2020/12/23 05:29:46;;;;;;;6.90;2.60;;;;;;;;;;5094190;28;20456;-73
2020/12/23 05:32:17;;;;;;;6.33;2.20;;;;;;;;;;5078516;28;20888;-73
2020/12/23 05:34:48;;;;;;;11.00;2.80;;;;;;;;;;5077388;28;20452;-73
2020/12/23 05:37:24;;;;;;;11.13;2.40;;;;;;;;;;5077369;28;20717;-73
2020/12/23 05:40:02;;;;;;;8.17;3.40;;;;;;;;;;5076903;28;20814;-73
2020/12/23 05:42:34;;;;;;;9.13;2.93;;;;;;;;;;5077008;28;20847;-74
2020/12/23 05:45:02;;;;;;;8.03;2.30;;;;;;;;;;5076708;28;20493;-73
2020/12/23 05:47:30;;;;;;;7.70;1.77;;;;;;;;;;5076799;28;20491;-73
2020/12/23 05:50:00;;;;;;;6.37;2.23;;;;;;;;;;5076761;28;20888;-73
2020/12/23 05:52:27;;;;;;;21.70;3.03;;;;;;;;;;5076538;28;20461;-73
2020/12/23 05:54:55;;;;;;;21.33;2.73;;;;;;;;;;5076882;28;20623;-73
2020/12/23 05:57:22;;;;;;;25.23;2.87;;;;;;;;;;5076136;28;20538;-73
2020/12/23 05:59:49;;;;;;;11.30;2.17;;;;;;;;;;5075907;28;20457;-73
2020/12/23 06:02:17;;;;;;;13.47;2.50;;;;;;;;;;5075329;28;20460;-73
2020/12/23 06:04:46;;;;;;;6.13;3.20;;;;;;;;;;5075682;28;20479;-73
2020/12/23 06:07:13;;;;;;;8.83;2.13;;;;;;;;;;5075697;28;20811;-73
2020/12/23 06:09:41;;;;;;;5.20;2.20;;;;;;;;;;5075578;28;20476;-73
2020/12/23 06:12:19;;;;;;;6.83;2.23;;;;;;;;;;5075696;28;20497;-73
2020/12/23 06:14:56;;;;;;;5.40;2.50;;;;;;;;;;5075492;28;20865;-73
2020/12/23 06:17:24;;;;;;;5.83;4.30;;;;;;;;;;5075586;28;20461;-73
2020/12/23 06:19:55;;;;;;;7.00;2.57;;;;;;;;;;5077239;28;20449;-73
2020/12/23 06:22:24;;;;;;;3.53;2.80;;;;;;;;;;5090593;28;20460;-73
2020/12/23 06:24:51;;;;;;;13.33;2.93;;;;;;;;;;5092220;28;20550;-73
2020/12/23 06:27:19;;;;;;;9.43;2.67;;;;;;;;;;5089974;28;20831;-73
2020/12/23 06:29:46;;;;;;;7.23;2.80;;;;;;;;;;5095569;28;20778;-73
2020/12/23 06:32:20;;;;;;;4.20;2.10;;;;;;;;;;5096270;28;20487;-73
2020/12/23 06:34:54;;;;;;;12.70;4.33;;;;;;;;;;5095998;28;20451;-73
2020/12/23 06:37:24;;;;;;;6.30;2.80;;;;;;;;;;5075786;28;20477;-73
2020/12/23 06:39:54;;;;;;;5.23;2.33;;;;;;;;;;5076624;28;20457;-73
2020/12/23 06:42:31;;;;;;;6.43;2.97;;;;;;;;;;5075844;28;20900;-73
2020/12/23 06:44:59;;;;;;;4.23;2.60;;;;;;;;;;5095675;28;20452;-73
2020/12/23 06:47:27;;;;;;;5.77;2.50;;;;;;;;;;5095405;28;20496;-73
2020/12/23 06:49:55;;;;;;;14.03;2.53;;;;;;;;;;5097125;28;20856;-73
2020/12/23 06:52:39;;;;;;;8.00;2.60;;;;;;;;;;5095466;28;20468;-73
2020/12/23 06:55:07;;;;;;;3.00;2.10;;;;;;;;;;5089080;28;20467;-73
2020/12/23 06:57:49;;;;;;;4.43;2.30;;;;;;;;;;5097510;28;20472;-73
2020/12/23 07:00:16;;;;;;;4.33;2.40;;;;;;;;;;5096301;28;20460;-73
2020/12/23 07:02:45;;;;;;;4.47;2.40;;;;;;;;;;5095902;28;20464;-74
2020/12/23 07:05:12;;;;;;;5.37;2.50;;;;;;;;;;5095431;28;20452;-74
2020/12/23 07:07:44;;;;;;;8.33;2.30;;;;;;;;;;5095298;28;20498;-73
2020/12/23 07:10:15;;;;;;;6.60;2.13;;;;;;;;;;5096170;28;20448;-73
2020/12/23 07:12:44;;;;;;;10.53;2.33;;;;;;;;;;5095444;28;20459;-73
2020/12/23 07:15:12;;;;;;;8.33;2.40;;;;;;;;;;5093154;28;20448;-73
2020/12/23 07:17:41;;;;;;;10.73;2.27;;;;;;;;;;5095527;28;20460;-72
2020/12/23 07:20:12;;;;;;;7.63;3.07;;;;;;;;;;5095095;28;20448;-73
2020/12/23 07:22:44;;;;;;;6.90;2.40;;;;;;;;;;5095228;28;20768;-73
2020/12/23 07:25:12;;;;;;;4.07;2.57;;;;;;;;;;5095558;28;21121;-73
2020/12/23 07:27:42;;;;;;;4.77;2.40;;;;;;;;;;5095470;28;20515;-73
2020/12/23 07:30:10;;;;;;;3.87;2.37;;;;;;;;;;5089998;28;20899;-73
2020/12/23 07:32:37;;;;;;;4.07;2.60;;;;;;;;;;5098587;28;20471;-73
2020/12/23 07:35:05;;;;;;;4.33;2.67;;;;;;;;;;5082806;28;20448;-73
2020/12/23 07:37:39;;;;;;;4.47;2.30;;;;;;;;;;5097043;28;20938;-73
2020/12/23 07:40:15;;;;;;;3.97;2.40;;;;;;;;;;5098949;28;20498;-73
2020/12/23 07:42:47;;;;;;;6.13;2.80;;;;;;;;;;5097665;28;20463;-73
2020/12/23 07:45:19;;;;;;;4.17;2.60;;;;;;;;;;5095056;28;20455;-74
2020/12/23 07:47:57;;;;;;;4.83;2.47;;;;;;;;;;5084800;28;20928;-74
2020/12/23 07:50:25;;;;;;;10.00;3.37;;;;;;;;;;5077153;28;20840;-74
2020/12/23 07:52:53;;;;;;;13.73;2.57;;;;;;;;;;5083192;28;20530;-73
2020/12/23 07:55:22;;;;;;;6.87;3.20;;;;;;;;;;5099070;28;20801;-74
2020/12/23 07:57:50;;;;;;;5.70;3.27;;;;;;;;;;5099081;28;20467;-73
2020/12/23 08:00:18;;;;;;;4.67;2.43;;;;;;;;;;5099328;28;20479;-73
2020/12/23 08:02:45;;;;;;;9.63;3.30;;;;;;;;;;5082424;28;20465;-73
2020/12/23 08:05:13;;;;;;;5.07;2.97;;;;;;;;;;5079077;28;20452;-73
2020/12/23 08:07:45;;;;;;;6.33;3.17;;;;;;;;;;5078816;28;20849;-74
2020/12/23 08:10:13;;;;;;;6.60;2.80;;;;;;;;;;5079157;28;20485;-73
2020/12/23 08:12:42;;;;;;;11.67;3.80;;;;;;;;;;5077879;28;20477;-73
2020/12/23 08:15:14;;;;;;;11.27;4.70;;;;;;;;;;5078022;28;20459;-73
2020/12/23 08:17:42;;;;;;;5.47;3.07;;;;;;;;;;5078829;28;20467;-73
2020/12/23 08:20:13;;;;;;;11.13;3.70;;;;;;;;;;5098281;28;20470;-73
2020/12/23 08:22:41;;;;;;;13.07;3.23;;;;;;;;;;5087361;28;20467;-73
2020/12/23 08:25:10;;;;;;;7.57;3.40;;;;;;;;;;5098754;28;20448;-74
2020/12/23 08:27:37;;;;;;;6.93;3.30;;;;;;;;;;5096774;28;20484;-74
2020/12/23 08:30:08;;;;;;;4.93;3.33;;;;;;;;;;5096965;28;20452;-74
2020/12/23 08:32:47;;;;;;;7.93;2.97;;;;;;;;;;5091571;28;20853;-74
2020/12/23 08:35:22;;;;;;;6.67;2.83;;;;;;;;;;5078568;28;20459;-75
2020/12/23 08:37:52;;;;;;;9.73;2.87;;;;;;;;;;5091359;28;20549;-74
2020/12/23 08:40:19;;;;;;;5.20;3.00;;;;;;;;;;5097910;28;20456;-74
2020/12/23 08:42:59;;;;;;;9.47;4.00;;;;;;;;;;5096953;28;20460;-73
2020/12/23 08:45:28;;;;;;;5.60;3.40;;;;;;;;;;5097959;28;20697;-73
2020/12/23 08:48:21;;;;;;;8.60;3.30;;;;;;;;;;5095678;28;20763;-74
2020/12/23 08:50:55;;;;;;;6.80;3.43;;;;;;;;;;5089084;28;20489;-73
2020/12/23 08:53:32;;;;;;;6.30;2.87;;;;;;;;;;5078858;28;20564;-73
2020/12/23 08:56:00;;;;;;;4.53;3.17;;;;;;;;;;5076911;28;20471;-73
2020/12/23 08:58:27;;;;;;;37.27;4.37;;;;;;;;;;5097038;28;20480;-73
2020/12/23 09:01:02;;;;;;;8.80;3.90;;;;;;;;;;5094535;28;20449;-73
2020/12/23 09:03:29;;;;;;;8.27;3.97;;;;;;;;;;5090132;28;20474;-74
2020/12/23 09:05:59;;;;;;;5.97;3.57;;;;;;;;;;5089660;28;20460;-73
2020/12/23 09:08:28;;;;;;;7.00;4.30;;;;;;;;;;5092047;28;21036;-73
2020/12/23 09:10:59;;;;;;;7.30;4.43;;;;;;;;;;5096319;28;20459;-73
2020/12/23 09:13:30;;;;;;;6.13;3.60;;;;;;;;;;5096086;28;20486;-73
2020/12/23 09:15:59;;;;;;;5.60;4.00;;;;;;;;;;5077506;28;20956;-74
2020/12/23 09:18:26;;;;;;;8.10;4.50;;;;;;;;;;5077288;28;20461;-73
2020/12/23 09:21:01;;;;;;;8.87;5.10;;;;;;;;;;5079674;28;20453;-74
2020/12/23 09:23:32;;;;;;;5.27;3.13;;;;;;;;;;5086729;28;20467;-74
2020/12/23 09:26:00;;;;;;;8.37;3.93;;;;;;;;;;5100208;28;20463;-73
2020/12/23 09:28:31;;;;;;;6.70;3.33;;;;;;;;;;5097051;28;20503;-73
2020/12/23 09:31:01;;;;;;;8.80;3.70;;;;;;;;;;5095501;28;20460;-73
2020/12/23 09:33:42;;;;;;;6.30;3.67;;;;;;;;;;5097489;28;20467;-73
2020/12/23 09:36:09;;;;;;;7.83;3.77;;;;;;;;;;5094179;28;20451;-73
2020/12/23 09:38:37;;;;;;;5.30;3.50;;;;;;;;;;5094633;28;20460;-73
2020/12/23 09:41:08;;;;;;;9.83;3.37;;;;;;;;;;5093793;28;20903;-73
2020/12/23 09:43:36;;;;;;;5.93;3.70;;;;;;;;;;5096056;28;20467;-72
2020/12/23 09:46:08;;;;;;;7.80;3.40;;;;;;;;;;5097014;28;20452;-72
2020/12/23 09:48:35;;;;;;;6.03;3.80;;;;;;;;;;5090115;28;20500;-72
2020/12/23 09:51:03;;;;;;;5.43;3.47;;;;;;;;;;5090938;28;20872;-73
2020/12/23 09:53:43;;;;;;;;;;;;;;;;;;;;;
2020/12/23 09:56:12;;;;;;;8.00;4.53;;;;;;;;;;5066154;28;20889;-72
2020/12/23 09:58:39;;;;;;;9.03;5.20;;;;;;;;;;5095840;28;20464;-72
2020/12/23 10:01:08;;;;;;;6.90;4.83;;;;;;;;;;5087170;28;20465;-72
2020/12/23 10:03:35;;;;;;;8.50;5.17;;;;;;;;;;5075383;28;20497;-72
2020/12/23 10:06:03;;;;;;;7.90;4.70;;;;;;;;;;5075909;28;20869;-72
2020/12/23 10:08:31;;;;;;;9.63;5.87;;;;;;;;;;5074644;28;20748;-73
2020/12/23 10:10:58;;;;;;;6.30;4.20;;;;;;;;;;5079614;28;20449;-73
2020/12/23 10:13:25;;;;;;;8.33;5.17;;;;;;;;;;5080075;28;20457;-73
2020/12/23 10:15:54;;;;;;;8.77;4.40;;;;;;;;;;5082895;28;20448;-73
2020/12/23 10:18:23;;;;;;;7.80;5.00;;;;;;;;;;5082667;28;20468;-73
2020/12/23 10:20:54;;;;;;;6.57;4.07;;;;;;;;;;5096549;28;20452;-73
2020/12/23 10:23:22;;;;;;;6.40;4.30;;;;;;;;;;5098494;28;20941;-73
2020/12/23 10:25:49;;;;;;;6.97;4.13;;;;;;;;;;5091810;28;20453;-72
2020/12/23 10:28:16;;;;;;;5.23;3.70;;;;;;;;;;5076210;28;20492;-72
2020/12/23 10:30:45;;;;;;;9.43;4.33;;;;;;;;;;5078225;28;20452;-71
2020/12/23 10:33:12;;;;;;;5.97;4.30;;;;;;;;;;5095192;28;20479;-73
2020/12/23 10:35:40;;;;;;;6.40;3.80;;;;;;;;;;5092765;28;20739;-72
2020/12/23 10:38:08;;;;;;;6.50;3.70;;;;;;;;;;5085725;28;20538;-72
2020/12/23 10:40:35;;;;;;;6.30;3.60;;;;;;;;;;5085211;28;20498;-73
2020/12/23 10:43:02;;;;;;;5.73;5.10;;;;;;;;;;5094531;28;20471;-73
2020/12/23 10:45:30;;;;;;;6.90;4.50;;;;;;;;;;5094801;28;20459;-73
2020/12/23 10:47:57;;;;;;;16.47;8.93;;;;;;;;;;5078288;28;20547;-71
2020/12/23 10:50:25;;;;;;;8.40;4.30;;;;;;;;;;5079831;28;20526;-73
2020/12/23 10:52:53;;;;;;;6.73;4.73;;;;;;;;;;5072606;28;20449;-73
2020/12/23 10:55:20;;;;;;;6.80;4.90;;;;;;;;;;5073935;28;20457;-73
2020/12/23 10:57:51;;;;;;;6.10;3.97;;;;;;;;;;5076772;28;20757;-73
2020/12/23 11:00:18;;;;;;;7.17;4.40;;;;;;;;;;5080347;28;20552;-74
2020/12/23 11:02:47;;;;;;;6.53;4.50;;;;;;;;;;5074857;28;20461;-73
2020/12/23 11:05:14;;;;;;;6.90;4.03;;;;;;;;;;5076613;28;20457;-73
2020/12/23 11:07:42;;;;;;;7.30;4.00;;;;;;;;;;5079208;28;20946;-73
2020/12/23 11:10:10;;;;;;;10.33;5.10;;;;;;;;;;5084456;28;20453;-72
2020/12/23 11:12:37;;;;;;;9.27;6.90;;;;;;;;;;5098411;28;20483;-73
2020/12/23 11:15:06;;;;;;;8.90;5.30;;;;;;;;;;5088649;28;20743;-73
2020/12/23 11:17:39;;;;;;;10.83;5.70;;;;;;;;;;5078915;28;20464;-74
2020/12/23 11:20:06;;;;;;;10.93;5.67;;;;;;;;;;5081335;28;20472;-72
2020/12/23 11:22:34;;;;;;;8.10;5.23;;;;;;;;;;5088201;28;20465;-73
2020/12/23 11:25:01;;;;;;;7.63;4.80;;;;;;;;;;5078340;28;20465;-72
2020/12/23 11:27:29;;;;;;;8.17;5.27;;;;;;;;;;5078042;28;20464;-71
2020/12/23 11:29:56;;;;;;;8.10;5.20;;;;;;;;;;5077838;28;20456;-73
2020/12/23 11:32:33;;;;;;;8.13;5.57;;;;;;;;;;5079919;28;20738;-72
2020/12/23 11:35:03;;;;;;;7.33;4.80;;;;;;;;;;5086106;28;20460;-75
2020/12/23 11:37:38;;;;;;;9.10;5.00;;;;;;;;;;5080178;28;20468;-73
2020/12/23 11:40:05;;;;;;;13.43;4.43;;;;;;;;;;5081021;28;20461;-73
2020/12/23 11:42:37;;;;;;;7.57;4.90;;;;;;;;;;5094561;28;20460;-73
2020/12/23 11:45:11;;;;;;;8.80;5.43;;;;;;;;;;5087184;28;20472;-73
2020/12/23 11:47:39;;;;;;;8.57;5.47;;;;;;;;;;5099801;28;20895;-73
2020/12/23 11:50:07;;;;;;;7.63;5.13;;;;;;;;;;5098142;28;20509;-73
2020/12/23 11:52:34;;;;;;;9.10;5.17;;;;;;;;;;5099465;28;20483;-73
2020/12/23 11:55:01;;;;;;;9.20;5.43;;;;;;;;;;5094918;28;20457;-73
2020/12/23 11:57:40;;;;;;;8.83;5.17;;;;;;;;;;5100120;28;20942;-73
2020/12/23 12:00:07;;;;;;;8.53;5.23;;;;;;;;;;5095258;28;20451;-73
2020/12/23 12:02:35;;;;;;;10.13;5.50;;;;;;;;;;5077531;28;20523;-73
2020/12/23 12:05:03;;;;;;;12.70;6.00;;;;;;;;;;5084968;28;20476;-74
2020/12/23 12:07:33;;;;;;;13.23;5.97;;;;;;;;;;5094001;28;20952;-73
2020/12/23 12:10:01;;;;;;;9.47;5.67;;;;;;;;;;5080195;28;20488;-73
2020/12/23 12:12:28;;;;;;;10.20;5.90;;;;;;;;;;5094549;28;20456;-73
2020/12/23 12:14:58;;;;;;;8.37;5.20;;;;;;;;;;5096898;28;20468;-73
2020/12/23 12:17:28;;;;;;;8.43;5.70;;;;;;;;;;5088706;28;20507;-73
2020/12/23 12:19:56;;;;;;;8.30;4.80;;;;;;;;;;5086367;28;20891;-73
2020/12/23 12:22:24;;;;;;;7.80;5.00;;;;;;;;;;5082685;28;20464;-73
2020/12/23 12:24:51;;;;;;;8.13;4.87;;;;;;;;;;5077794;28;20465;-73
2020/12/23 12:27:20;;;;;;;10.93;5.50;;;;;;;;;;5086491;28;20457;-74
2020/12/23 12:29:47;;;;;;;7.77;5.43;;;;;;;;;;5081005;28;21255;-73
2020/12/23 12:32:16;;;;;;;7.73;5.00;;;;;;;;;;5078372;28;20460;-73
2020/12/23 12:34:44;;;;;;;9.07;6.70;;;;;;;;;;5090421;28;20541;-73
2020/12/23 12:37:12;;;;;;;10.00;6.60;;;;;;;;;;5097539;28;20456;-73
2020/12/23 12:39:42;;;;;;;13.53;6.73;;;;;;;;;;5092631;28;20469;-73
2020/12/23 12:42:09;;;;;;;12.50;8.53;;;;;;;;;;5077482;28;20847;-73
2020/12/23 12:44:37;;;;;;;9.50;6.70;;;;;;;;;;5077274;28;20469;-73
2020/12/23 12:47:08;;;;;;;11.20;7.17;;;;;;;;;;5080536;28;20543;-73
2020/12/23 12:49:38;;;;;;;10.10;6.77;;;;;;;;;;5094154;28;20907;-73
2020/12/23 12:52:10;;;;;;;10.83;7.10;;;;;;;;;;5078311;28;20480;-73
2020/12/23 12:54:40;;;;;;;9.00;6.93;;;;;;;;;;5076946;28;20514;-73
2020/12/23 12:57:10;;;;;;;11.13;7.07;;;;;;;;;;5077611;28;20507;-73
2020/12/23 12:59:45;;;;;;;11.50;7.17;;;;;;;;;;5079598;28;20737;-73
2020/12/23 13:02:14;;;;;;;12.17;6.93;;;;;;;;;;5079051;28;20448;-73
2020/12/23 13:04:44;;;;;;;9.37;6.80;;;;;;;;;;5095742;28;20472;-73
2020/12/23 13:07:22;;;;;;;10.43;6.83;;;;;;;;;;5097164;28;20521;-73
2020/12/23 13:09:50;;;;;;;9.10;7.13;;;;;;;;;;5096094;28;20443;-72
2020/12/23 13:12:18;;;;;;;10.20;7.90;;;;;;;;;;5097084;28;20440;-72
2020/12/23 13:14:46;;;;;;;9.17;5.97;;;;;;;;;;5096323;28;20491;-72
2020/12/23 13:17:16;;;;;;;10.37;7.00;;;;;;;;;;5093811;28;20463;-72
2020/12/23 13:19:50;;;;;;;12.23;6.80;;;;;;;;;;5097427;28;20462;-72
2020/12/23 13:22:23;;;;;;;11.07;7.80;;;;;;;;;;5097422;28;20544;-73
2020/12/23 13:24:58;;;;;;;15.20;9.10;;;;;;;;;;5097410;28;20514;-72
2020/12/23 13:27:26;;;;;;;11.17;7.77;;;;;;;;;;5092517;28;20476;-73
2020/12/23 13:29:56;;;;;;;10.30;7.57;;;;;;;;;;5096812;28;20476;-74
2020/12/23 13:32:27;;;;;;;10.93;7.50;;;;;;;;;;5098263;28;20456;-73
2020/12/23 13:35:07;;;;;;;10.10;7.13;;;;;;;;;;5093900;28;20486;-73
2020/12/23 13:37:38;;;;;;;9.37;6.33;;;;;;;;;;5097772;28;20452;-72
2020/12/23 13:40:12;;;;;;;10.00;6.83;;;;;;;;;;5095767;28;20482;-72
2020/12/23 13:42:45;;;;;;;10.67;7.43;;;;;;;;;;5074114;28;20469;-72
2020/12/23 13:45:20;;;;;;;10.90;7.60;;;;;;;;;;5074529;28;20925;-73
2020/12/23 13:47:48;;;;;;;11.37;7.70;;;;;;;;;;5076762;28;20488;-73
2020/12/23 13:50:16;;;;;;;13.13;7.33;;;;;;;;;;5094821;28;20474;-73
2020/12/23 13:52:45;;;;;;;9.07;6.37;;;;;;;;;;5095663;28;20456;-73
2020/12/23 13:55:13;;;;;;;13.80;7.17;;;;;;;;;;5094315;28;20452;-73
2020/12/23 13:57:41;;;;;;;12.80;6.77;;;;;;;;;;5095932;28;20456;-73
2020/12/23 14:00:09;;;;;;;9.17;6.20;;;;;;;;;;5095671;28;20533;-74
2020/12/23 14:02:38;;;;;;;7.30;5.60;;;;;;;;;;5089696;28;20450;-74
2020/12/23 14:05:05;;;;;;;8.20;5.67;;;;;;;;;;5074783;28;21043;-74
2020/12/23 14:07:36;;;;;;;9.27;7.37;;;;;;;;;;5074348;28;20465;-72
2020/12/23 14:10:04;;;;;;;8.70;6.47;;;;;;;;;;5091082;28;20777;-73
2020/12/23 14:12:31;;;;;;;9.47;6.00;;;;;;;;;;5085045;28;20444;-74
2020/12/23 14:14:58;;;;;;;9.47;6.03;;;;;;;;;;5080949;28;20471;-73
2020/12/23 14:17:28;;;;;;;8.47;5.20;;;;;;;;;;5075407;28;20756;-73
2020/12/23 14:19:56;;;;;;;8.10;4.80;;;;;;;;;;5086225;28;20903;-73
2020/12/23 14:22:23;;;;;;;8.57;5.10;;;;;;;;;;5095375;28;20852;-73
2020/12/23 14:24:51;;;;;;;6.30;4.47;;;;;;;;;;5094817;28;20467;-74
2020/12/23 14:27:21;;;;;;;6.37;4.63;;;;;;;;;;5081332;28;21021;-73
2020/12/23 14:29:48;;;;;;;6.97;4.80;;;;;;;;;;5095649;28;20978;-73
2020/12/23 14:32:16;;;;;;;9.47;5.90;;;;;;;;;;5094803;28;20525;-74
2020/12/23 14:34:44;;;;;;;12.07;7.60;;;;;;;;;;5094994;28;20471;-74
2020/12/23 14:37:11;;;;;;;10.00;6.90;;;;;;;;;;5093673;28;20455;-73
2020/12/23 14:39:39;;;;;;;9.40;6.50;;;;;;;;;;5093854;28;20483;-73
2020/12/23 14:42:11;;;;;;;6.90;5.37;;;;;;;;;;5094685;28;20456;-73
2020/12/23 14:44:38;;;;;;;7.40;4.90;;;;;;;;;;5094485;28;20876;-73
2020/12/23 14:47:06;;;;;;;8.77;5.53;;;;;;;;;;5094629;28;20455;-73
2020/12/23 14:49:33;;;;;;;8.53;5.27;;;;;;;;;;5095135;28;20572;-73
2020/12/23 14:52:05;;;;;;;8.20;5.70;;;;;;;;;;5095085;28;20543;-73